createdAt,value
2023-01-21T00:01:03.753Z,-0.87
2023-01-21T00:03:30.748Z,-0.94
2023-01-21T00:06:00.566Z,-0.99
2023-01-21T00:08:27.433Z,-0.98
2023-01-21T00:10:54.877Z,-0.96
2023-01-21T00:13:22.034Z,-1.03
2023-01-21T00:15:48.924Z,-1.07
2023-01-21T00:18:15.840Z,-1.11
2023-01-21T00:20:42.991Z,-1.11
2023-01-21T00:23:11.030Z,-1.12
2023-01-21T00:25:38.019Z,-1.09
2023-01-21T00:28:05.093Z,-1.09
2023-01-21T00:30:32.207Z,-1.10
2023-01-21T00:32:59.219Z,-1.07
2023-01-21T00:35:26.122Z,-1.06
2023-01-21T00:37:53.080Z,-1.06
2023-01-21T00:40:19.995Z,-1.09
2023-01-21T00:42:46.979Z,-1.15
2023-01-21T00:45:14.025Z,-1.15
2023-01-21T00:47:40.943Z,-1.14
2023-01-21T00:50:09.932Z,-1.10
2023-01-21T00:52:36.924Z,-1.09
2023-01-21T00:55:04.880Z,-1.16
2023-01-21T00:57:31.855Z,-1.18
2023-01-21T00:59:59.106Z,-1.15
2023-01-21T01:02:26.051Z,-1.16
2023-01-21T01:04:53.009Z,-1.17
2023-01-21T01:07:19.885Z,-1.17
2023-01-21T01:09:46.911Z,-1.18
2023-01-21T01:12:13.858Z,-1.22
2023-01-21T01:14:40.914Z,-1.21
2023-01-21T01:17:07.833Z,-1.21
2023-01-21T01:19:34.811Z,-1.26
2023-01-21T01:22:01.761Z,-1.24
2023-01-21T01:24:28.814Z,-1.23
2023-01-21T01:26:55.764Z,-1.27
2023-01-21T01:29:22.716Z,-1.28
2023-01-21T01:31:49.692Z,-1.30
2023-01-21T01:34:16.669Z,-1.29
2023-01-21T01:36:43.703Z,-1.32
2023-01-21T01:39:10.622Z,-1.33
2023-01-21T01:41:37.573Z,-1.29
2023-01-21T01:44:06.183Z,-1.27
2023-01-21T01:46:35.350Z,-1.24
2023-01-21T01:49:08.442Z,-1.32
2023-01-21T01:51:54.876Z,-1.35
2023-01-21T01:54:29.673Z,-1.37
2023-01-21T01:56:58.058Z,-1.38
2023-01-21T01:59:25.009Z,-1.38
2023-01-21T02:01:52.001Z,-1.40
2023-01-21T10:07:53.740Z,2.74
2023-01-21T10:10:25.189Z,2.80
2023-01-21T10:13:29.697Z,2.84
2023-01-21T10:15:56.618Z,2.59
2023-01-21T10:18:30.805Z,2.45
2023-01-21T10:21:03.754Z,2.46
2023-01-21T10:23:42.848Z,2.57
2023-01-21T10:26:12.366Z,2.57
2023-01-21T10:28:44.779Z,2.61
2023-01-21T10:31:15.620Z,2.68
2023-01-21T10:33:42.714Z,2.68
2023-01-21T10:36:27.988Z,2.66
2023-01-21T10:39:16.936Z,2.50
2023-01-21T10:41:43.802Z,2.32
2023-01-21T10:44:44.796Z,2.31
2023-01-21T10:47:20.539Z,2.17
2023-01-21T10:50:25.693Z,2.20
2023-01-21T10:52:57.543Z,2.18
2023-01-21T10:55:46.187Z,2.19
2023-01-21T10:58:47.627Z,2.24
2023-01-21T11:01:30.552Z,2.23
2023-01-21T11:03:59.668Z,2.34
2023-01-21T11:06:26.593Z,2.43
2023-01-21T11:08:58.790Z,2.50
2023-01-21T11:11:30.728Z,2.51
2023-01-21T11:13:57.783Z,2.47
2023-01-21T11:16:45.540Z,2.41
2023-01-21T11:19:32.889Z,2.36
2023-01-21T11:22:18.245Z,2.37
2023-01-21T11:24:49.228Z,2.40
2023-01-21T11:27:34.944Z,2.35
2023-01-21T11:30:02.507Z,2.33
2023-01-21T11:32:30.241Z,2.36
2023-01-21T11:35:15.973Z,2.33
2023-01-21T11:37:42.877Z,2.37
2023-01-21T11:40:24.937Z,2.38
2023-01-21T11:42:53.614Z,2.38
2023-01-21T11:45:33.603Z,2.39
2023-01-21T11:48:01.177Z,2.37
2023-01-21T11:50:34.840Z,2.38
2023-01-21T11:53:08.057Z,2.44
2023-01-21T11:55:42.789Z,2.48
2023-01-21T11:58:20.382Z,2.56
2023-01-21T12:00:48.293Z,2.57
2023-01-21T12:03:18.582Z,2.53
2023-01-21T12:05:48.522Z,2.48
2023-01-21T12:08:21.184Z,2.49
2023-01-21T12:10:48.121Z,2.50
2023-01-21T12:13:25.109Z,2.55
2023-01-21T12:16:04.448Z,2.56
2023-01-21T12:18:46.641Z,2.62
2023-01-21T12:21:28.230Z,2.65
2023-01-21T12:24:20.044Z,2.63
2023-01-21T12:27:26.015Z,2.65
2023-01-21T12:30:05.010Z,2.68
2023-01-21T12:32:39.446Z,2.67
2023-01-21T12:35:26.847Z,2.76
2023-01-21T12:38:06.880Z,2.78
2023-01-21T12:40:39.833Z,2.78
2023-01-21T12:43:49.510Z,2.77
2023-01-21T12:46:49.299Z,2.73
2023-01-21T12:49:42.250Z,2.80
2023-01-21T12:52:14.733Z,2.85
2023-01-21T12:55:08.591Z,2.83
2023-01-21T12:57:39.127Z,2.81
2023-01-21T13:00:23.777Z,2.87
2023-01-21T13:03:08.777Z,2.90
2023-01-21T13:05:37.630Z,2.90
2023-01-21T13:08:22.694Z,2.88
2023-01-21T13:10:53.382Z,2.89
2023-01-21T13:13:34.712Z,2.87
2023-01-21T13:16:05.606Z,2.88
2023-01-21T13:18:37.957Z,2.88
2023-01-21T13:21:12.876Z,2.92
2023-01-21T13:23:39.806Z,2.90
2023-01-21T13:26:14.331Z,2.87
2023-01-21T13:29:06.967Z,2.86
2023-01-21T13:32:08.894Z,2.79
2023-01-21T13:34:50.555Z,2.72
2023-01-21T13:37:49.897Z,2.58
2023-01-21T13:40:33.522Z,2.48
2023-01-21T13:43:29.308Z,2.49
2023-01-21T13:45:56.256Z,2.48
2023-01-21T13:48:41.956Z,2.38
2023-01-21T13:51:34.295Z,2.36
2023-01-21T13:54:16.787Z,2.40
2023-01-21T13:57:03.490Z,2.38
2023-01-21T13:59:34.378Z,2.37
2023-01-21T14:02:11.490Z,2.30
2023-01-21T14:05:07.815Z,2.22
2023-01-21T22:02:50.061Z,-1.32
